sensor_id;sensor_type;location;lat;lon;timestamp;P1;durP1;ratioP1;P2;durP2;ratioP2
20982;SDS011;10650;51.528;6.748;2022-12-10T00:01:49;77.57;;;41.22;;
20982;SDS011;10650;51.528;6.748;2022-12-10T00:04:18;68.13;;;39.28;;
20982;SDS011;10650;51.528;6.748;2022-12-10T00:06:49;70.95;;;40.22;;
20982;SDS011;10650;51.528;6.748;2022-12-10T00:09:18;84.65;;;44.30;;
20982;SDS011;10650;51.528;6.748;2022-12-10T00:11:47;76.63;;;42.08;;
20982;SDS011;10650;51.528;6.748;2022-12-10T00:14:15;87.22;;;43.72;;
20982;SDS011;10650;51.528;6.748;2022-12-10T00:16:43;85.53;;;45.17;;
20982;SDS011;10650;51.528;6.748;2022-12-10T00:19:12;74.10;;;42.05;;
20982;SDS011;10650;51.528;6.748;2022-12-10T00:21:40;72.30;;;41.15;;
20982;SDS011;10650;51.528;6.748;2022-12-10T00:24:09;70.90;;;40.78;;
20982;SDS011;10650;51.528;6.748;2022-12-10T00:26:38;77.80;;;43.13;;
20982;SDS011;10650;51.528;6.748;2022-12-10T00:29:07;77.72;;;42.45;;
20982;SDS011;10650;51.528;6.748;2022-12-10T00:31:37;75.72;;;41.05;;
20982;SDS011;10650;51.528;6.748;2022-12-10T00:34:09;68.57;;;39.47;;
20982;SDS011;10650;51.528;6.748;2022-12-10T00:36:39;97.07;;;47.72;;
20982;SDS011;10650;51.528;6.748;2022-12-10T00:39:12;86.50;;;44.45;;
20982;SDS011;10650;51.528;6.748;2022-12-10T00:44:10;98.20;;;47.25;;
20982;SDS011;10650;51.528;6.748;2022-12-10T00:46:39;101.55;;;48.67;;
20982;SDS011;10650;51.528;6.748;2022-12-10T00:49:07;89.35;;;46.33;;
20982;SDS011;10650;51.528;6.748;2022-12-10T00:51:35;95.22;;;45.80;;
20982;SDS011;10650;51.528;6.748;2022-12-10T00:54:03;89.32;;;45.58;;
20982;SDS011;10650;51.528;6.748;2022-12-10T00:56:33;77.05;;;42.78;;
20982;SDS011;10650;51.528;6.748;2022-12-10T00:59:01;75.47;;;41.90;;
20982;SDS011;10650;51.528;6.748;2022-12-10T01:01:31;90.53;;;45.22;;
20982;SDS011;10650;51.528;6.748;2022-12-10T01:04:01;86.78;;;43.85;;
20982;SDS011;10650;51.528;6.748;2022-12-10T01:06:34;70.07;;;39.55;;
20982;SDS011;10650;51.528;6.748;2022-12-10T01:09:06;72.47;;;39.88;;
20982;SDS011;10650;51.528;6.748;2022-12-10T01:11:38;70.50;;;39.38;;
20982;SDS011;10650;51.528;6.748;2022-12-10T01:14:09;89.00;;;45.25;;
20982;SDS011;10650;51.528;6.748;2022-12-10T01:16:39;95.60;;;44.97;;
20982;SDS011;10650;51.528;6.748;2022-12-10T01:19:07;87.47;;;43.65;;
20982;SDS011;10650;51.528;6.748;2022-12-10T01:21:35;71.35;;;39.28;;
20982;SDS011;10650;51.528;6.748;2022-12-10T01:24:04;70.53;;;39.08;;
20982;SDS011;10650;51.528;6.748;2022-12-10T01:26:33;75.97;;;40.13;;
20982;SDS011;10650;51.528;6.748;2022-12-10T01:29:04;92.97;;;45.38;;
20982;SDS011;10650;51.528;6.748;2022-12-10T01:31:33;93.57;;;44.58;;
20982;SDS011;10650;51.528;6.748;2022-12-10T01:34:02;72.40;;;38.80;;
20982;SDS011;10650;51.528;6.748;2022-12-10T01:36:34;67.22;;;37.53;;
20982;SDS011;10650;51.528;6.748;2022-12-10T01:39:03;72.78;;;38.67;;
20982;SDS011;10650;51.528;6.748;2022-12-10T01:41:34;87.18;;;43.47;;
20982;SDS011;10650;51.528;6.748;2022-12-10T01:44:53;87.65;;;43.30;;
20982;SDS011;10650;51.528;6.748;2022-12-10T01:47:13;77.00;;;40.10;;
20982;SDS011;10650;51.528;6.748;2022-12-10T01:49:41;97.22;;;45.33;;
20982;SDS011;10650;51.528;6.748;2022-12-10T01:52:10;72.80;;;39.67;;
20982;SDS011;10650;51.528;6.748;2022-12-10T01:54:40;100.57;;;44.58;;
20982;SDS011;10650;51.528;6.748;2022-12-10T01:57:11;74.07;;;38.55;;
20982;SDS011;10650;51.528;6.748;2022-12-10T01:59:43;85.22;;;42.85;;
20982;SDS011;10650;51.528;6.748;2022-12-10T02:02:17;73.00;;;39.20;;
20982;SDS011;10650;51.528;6.748;2022-12-10T02:04:56;78.13;;;42.00;;
20982;SDS011;10650;51.528;6.748;2022-12-10T02:07:36;85.38;;;43.22;;
20982;SDS011;10650;51.528;6.748;2022-12-10T02:10:18;85.65;;;43.92;;
20982;SDS011;10650;51.528;6.748;2022-12-10T02:12:53;189.40;;;49.75;;
20982;SDS011;10650;51.528;6.748;2022-12-10T02:15:25;346.20;;;49.53;;
20982;SDS011;10650;51.528;6.748;2022-12-10T02:17:59;146.32;;;43.10;;
20982;SDS011;10650;51.528;6.748;2022-12-10T02:20:34;323.30;;;49.67;;
20982;SDS011;10650;51.528;6.748;2022-12-10T02:25:39;198.02;;;42.97;;
20982;SDS011;10650;51.528;6.748;2022-12-10T02:28:17;475.20;;;66.80;;
20982;SDS011;10650;51.528;6.748;2022-12-10T02:30:56;744.22;;;83.45;;
20982;SDS011;10650;51.528;6.748;2022-12-10T02:33:27;492.38;;;58.53;;
20982;SDS011;10650;51.528;6.748;2022-12-10T02:35:58;287.13;;;48.65;;
20982;SDS011;10650;51.528;6.748;2022-12-10T02:38:29;661.45;;;79.97;;
20982;SDS011;10650;51.528;6.748;2022-12-10T02:41:00;399.63;;;57.72;;
20982;SDS011;10650;51.528;6.748;2022-12-10T02:43:36;212.65;;;45.25;;
20982;SDS011;10650;51.528;6.748;2022-12-10T02:46:07;250.50;;;49.58;;
20982;SDS011;10650;51.528;6.748;2022-12-10T02:48:36;113.45;;;38.90;;
20982;SDS011;10650;51.528;6.748;2022-12-10T02:51:07;111.85;;;38.53;;
20982;SDS011;10650;51.528;6.748;2022-12-10T02:53:40;112.50;;;37.63;;
20982;SDS011;10650;51.528;6.748;2022-12-10T02:56:13;127.25;;;37.53;;
20982;SDS011;10650;51.528;6.748;2022-12-10T02:58:51;96.95;;;37.25;;
20982;SDS011;10650;51.528;6.748;2022-12-10T03:01:34;132.85;;;38.85;;
20982;SDS011;10650;51.528;6.748;2022-12-10T03:04:11;273.52;;;49.92;;
20982;SDS011;10650;51.528;6.748;2022-12-10T03:06:45;102.82;;;37.42;;
20982;SDS011;10650;51.528;6.748;2022-12-10T03:09:20;144.18;;;38.58;;
20982;SDS011;10650;51.528;6.748;2022-12-10T03:11:54;125.38;;;38.22;;
20982;SDS011;10650;51.528;6.748;2022-12-10T03:14:27;213.60;;;43.35;;
20982;SDS011;10650;51.528;6.748;2022-12-10T03:16:59;90.40;;;34.35;;
20982;SDS011;10650;51.528;6.748;2022-12-10T03:19:30;106.88;;;36.05;;
20982;SDS011;10650;51.528;6.748;2022-12-10T03:22:03;327.75;;;54.75;;
20982;SDS011;10650;51.528;6.748;2022-12-10T03:24:36;63.88;;;33.00;;
20982;SDS011;10650;51.528;6.748;2022-12-10T03:27:05;81.75;;;35.95;;
20982;SDS011;10650;51.528;6.748;2022-12-10T03:29:35;59.42;;;32.97;;
20982;SDS011;10650;51.528;6.748;2022-12-10T03:32:08;54.70;;;32.27;;
20982;SDS011;10650;51.528;6.748;2022-12-10T03:34:37;66.32;;;33.92;;
20982;SDS011;10650;51.528;6.748;2022-12-10T03:37:06;85.05;;;36.72;;
20982;SDS011;10650;51.528;6.748;2022-12-10T03:39:34;73.65;;;34.58;;
20982;SDS011;10650;51.528;6.748;2022-12-10T03:42:04;59.97;;;31.70;;
20982;SDS011;10650;51.528;6.748;2022-12-10T03:44:33;148.52;;;40.72;;
20982;SDS011;10650;51.528;6.748;2022-12-10T03:47:03;70.18;;;33.60;;
20982;SDS011;10650;51.528;6.748;2022-12-10T03:49:35;63.90;;;32.80;;
20982;SDS011;10650;51.528;6.748;2022-12-10T03:52:05;64.13;;;32.83;;
20982;SDS011;10650;51.528;6.748;2022-12-10T03:54:33;134.80;;;39.08;;
20982;SDS011;10650;51.528;6.748;2022-12-10T03:57:01;199.43;;;46.70;;
20982;SDS011;10650;51.528;6.748;2022-12-10T03:59:29;77.40;;;36.58;;
20982;SDS011;10650;51.528;6.748;2022-12-10T04:01:57;66.25;;;35.03;;
20982;SDS011;10650;51.528;6.748;2022-12-10T04:04:26;90.13;;;39.47;;
20982;SDS011;10650;51.528;6.748;2022-12-10T04:06:55;264.45;;;49.28;;
20982;SDS011;10650;51.528;6.748;2022-12-10T04:09:23;104.88;;;38.33;;
20982;SDS011;10650;51.528;6.748;2022-12-10T04:11:54;88.25;;;36.30;;
20982;SDS011;10650;51.528;6.748;2022-12-10T04:14:23;82.00;;;37.50;;
20982;SDS011;10650;51.528;6.748;2022-12-10T04:17:09;72.78;;;35.45;;
20982;SDS011;10650;51.528;6.748;2022-12-10T04:19:38;62.30;;;33.33;;
20982;SDS011;10650;51.528;6.748;2022-12-10T04:22:08;70.63;;;34.72;;
20982;SDS011;10650;51.528;6.748;2022-12-10T04:24:53;74.15;;;35.25;;
20982;SDS011;10650;51.528;6.748;2022-12-10T04:27:39;86.50;;;35.58;;
20982;SDS011;10650;51.528;6.748;2022-12-10T04:30:08;75.32;;;35.70;;
20982;SDS011;10650;51.528;6.748;2022-12-10T04:32:40;256.00;;;53.97;;
20982;SDS011;10650;51.528;6.748;2022-12-10T04:35:08;123.47;;;45.35;;
20982;SDS011;10650;51.528;6.748;2022-12-10T04:37:39;75.50;;;37.67;;
20982;SDS011;10650;51.528;6.748;2022-12-10T04:40:08;278.90;;;54.17;;
20982;SDS011;10650;51.528;6.748;2022-12-10T04:42:37;178.38;;;49.45;;
20982;SDS011;10650;51.528;6.748;2022-12-10T04:45:05;378.55;;;56.03;;
20982;SDS011;10650;51.528;6.748;2022-12-10T04:47:35;74.13;;;37.00;;
20982;SDS011;10650;51.528;6.748;2022-12-10T04:50:03;328.55;;;56.88;;
20982;SDS011;10650;51.528;6.748;2022-12-10T04:52:32;330.40;;;58.10;;
20982;SDS011;10650;51.528;6.748;2022-12-10T04:55:02;85.13;;;37.00;;
20982;SDS011;10650;51.528;6.748;2022-12-10T04:57:30;320.52;;;57.38;;
20982;SDS011;10650;51.528;6.748;2022-12-10T04:59:59;73.15;;;36.25;;
20982;SDS011;10650;51.528;6.748;2022-12-10T05:02:27;69.35;;;34.92;;
20982;SDS011;10650;51.528;6.748;2022-12-10T05:04:56;125.25;;;45.28;;
20982;SDS011;10650;51.528;6.748;2022-12-10T05:07:24;94.47;;;42.95;;
20982;SDS011;10650;51.528;6.748;2022-12-10T05:09:52;63.20;;;33.85;;
20982;SDS011;10650;51.528;6.748;2022-12-10T05:12:22;74.03;;;37.38;;
20982;SDS011;10650;51.528;6.748;2022-12-10T05:14:52;66.50;;;35.35;;
20982;SDS011;10650;51.528;6.748;2022-12-10T05:17:20;79.15;;;39.10;;
20982;SDS011;10650;51.528;6.748;2022-12-10T05:19:48;75.00;;;37.20;;
20982;SDS011;10650;51.528;6.748;2022-12-10T05:22:16;57.92;;;32.97;;
20982;SDS011;10650;51.528;6.748;2022-12-10T05:25:01;50.55;;;30.58;;
20982;SDS011;10650;51.528;6.748;2022-12-10T05:27:32;65.03;;;34.05;;
20982;SDS011;10650;51.528;6.748;2022-12-10T05:30:00;52.80;;;30.58;;
20982;SDS011;10650;51.528;6.748;2022-12-10T05:32:28;64.85;;;34.95;;
20982;SDS011;10650;51.528;6.748;2022-12-10T05:34:57;46.08;;;28.60;;
20982;SDS011;10650;51.528;6.748;2022-12-10T05:37:25;47.28;;;28.90;;
20982;SDS011;10650;51.528;6.748;2022-12-10T05:39:53;49.35;;;29.52;;
20982;SDS011;10650;51.528;6.748;2022-12-10T05:42:22;58.45;;;33.28;;
20982;SDS011;10650;51.528;6.748;2022-12-10T05:44:51;65.57;;;34.90;;
20982;SDS011;10650;51.528;6.748;2022-12-10T05:47:19;56.75;;;32.47;;
20982;SDS011;10650;51.528;6.748;2022-12-10T05:49:47;64.03;;;34.15;;
20982;SDS011;10650;51.528;6.748;2022-12-10T05:52:18;47.58;;;29.63;;
20982;SDS011;10650;51.528;6.748;2022-12-10T05:54:46;44.08;;;28.30;;
20982;SDS011;10650;51.528;6.748;2022-12-10T05:57:14;47.53;;;29.27;;
20982;SDS011;10650;51.528;6.748;2022-12-10T05:59:42;58.80;;;33.22;;
20982;SDS011;10650;51.528;6.748;2022-12-10T06:02:11;58.90;;;33.58;;
20982;SDS011;10650;51.528;6.748;2022-12-10T06:04:39;64.00;;;35.10;;
20982;SDS011;10650;51.528;6.748;2022-12-10T06:07:08;81.72;;;38.75;;
20982;SDS011;10650;51.528;6.748;2022-12-10T06:09:36;65.43;;;35.92;;
20982;SDS011;10650;51.528;6.748;2022-12-10T06:12:04;53.50;;;31.67;;
20982;SDS011;10650;51.528;6.748;2022-12-10T06:14:33;66.72;;;34.70;;
20982;SDS011;10650;51.528;6.748;2022-12-10T06:17:01;49.65;;;30.58;;
20982;SDS011;10650;51.528;6.748;2022-12-10T06:19:30;54.88;;;33.10;;
20982;SDS011;10650;51.528;6.748;2022-12-10T06:21:58;62.28;;;34.72;;
20982;SDS011;10650;51.528;6.748;2022-12-10T06:24:26;71.90;;;36.40;;
20982;SDS011;10650;51.528;6.748;2022-12-10T06:26:56;60.38;;;33.75;;
20982;SDS011;10650;51.528;6.748;2022-12-10T06:29:24;57.25;;;32.80;;
20982;SDS011;10650;51.528;6.748;2022-12-10T06:31:52;60.55;;;33.88;;
20982;SDS011;10650;51.528;6.748;2022-12-10T06:34:20;63.95;;;34.55;;
20982;SDS011;10650;51.528;6.748;2022-12-10T06:36:49;70.93;;;36.58;;
20982;SDS011;10650;51.528;6.748;2022-12-10T06:39:17;70.18;;;37.58;;
20982;SDS011;10650;51.528;6.748;2022-12-10T06:41:45;64.43;;;36.05;;
20982;SDS011;10650;51.528;6.748;2022-12-10T06:44:16;83.13;;;40.90;;
20982;SDS011;10650;51.528;6.748;2022-12-10T06:46:45;69.15;;;37.00;;
20982;SDS011;10650;51.528;6.748;2022-12-10T06:49:13;70.57;;;37.72;;
20982;SDS011;10650;51.528;6.748;2022-12-10T06:51:41;80.15;;;40.15;;
20982;SDS011;10650;51.528;6.748;2022-12-10T06:54:10;81.53;;;40.90;;
20982;SDS011;10650;51.528;6.748;2022-12-10T06:56:39;75.63;;;39.70;;
20982;SDS011;10650;51.528;6.748;2022-12-10T06:59:07;95.85;;;44.00;;
20982;SDS011;10650;51.528;6.748;2022-12-10T07:01:35;96.50;;;43.38;;
20982;SDS011;10650;51.528;6.748;2022-12-10T07:04:08;74.18;;;36.75;;
20982;SDS011;10650;51.528;6.748;2022-12-10T07:07:13;85.93;;;41.90;;
20982;SDS011;10650;51.528;6.748;2022-12-10T07:10:23;96.18;;;44.10;;
20982;SDS011;10650;51.528;6.748;2022-12-10T07:13:21;96.60;;;43.90;;
20982;SDS011;10650;51.528;6.748;2022-12-10T07:16:13;90.15;;;42.75;;
20982;SDS011;10650;51.528;6.748;2022-12-10T07:25:22;112.53;;;48.30;;
20982;SDS011;10650;51.528;6.748;2022-12-10T07:27:55;118.50;;;49.08;;
20982;SDS011;10650;51.528;6.748;2022-12-10T07:30:25;84.28;;;40.58;;
20982;SDS011;10650;51.528;6.748;2022-12-10T07:33:00;112.78;;;46.72;;
20982;SDS011;10650;51.528;6.748;2022-12-10T07:35:39;99.10;;;44.55;;
20982;SDS011;10650;51.528;6.748;2022-12-10T07:42:21;103.22;;;42.92;;
20982;SDS011;10650;51.528;6.748;2022-12-10T07:44:49;95.32;;;46.00;;
20982;SDS011;10650;51.528;6.748;2022-12-10T07:47:18;108.35;;;46.38;;
20982;SDS011;10650;51.528;6.748;2022-12-10T07:49:46;106.57;;;45.55;;
20982;SDS011;10650;51.528;6.748;2022-12-10T07:52:21;126.47;;;48.72;;
20982;SDS011;10650;51.528;6.748;2022-12-10T07:54:53;114.68;;;48.75;;
20982;SDS011;10650;51.528;6.748;2022-12-10T07:57:30;102.55;;;45.60;;
20982;SDS011;10650;51.528;6.748;2022-12-10T07:59:59;119.35;;;49.25;;
20982;SDS011;10650;51.528;6.748;2022-12-10T08:02:50;127.28;;;49.53;;
20982;SDS011;10650;51.528;6.748;2022-12-10T08:05:18;114.80;;;47.60;;
20982;SDS011;10650;51.528;6.748;2022-12-10T08:10:38;103.20;;;43.83;;
20982;SDS011;10650;51.528;6.748;2022-12-10T08:15:58;108.88;;;45.25;;
20982;SDS011;10650;51.528;6.748;2022-12-10T08:18:44;124.95;;;48.70;;
20982;SDS011;10650;51.528;6.748;2022-12-10T08:21:31;116.72;;;49.15;;
20982;SDS011;10650;51.528;6.748;2022-12-10T08:24:46;111.75;;;49.60;;
20982;SDS011;10650;51.528;6.748;2022-12-10T08:27:12;100.00;;;46.25;;
20982;SDS011;10650;51.528;6.748;2022-12-10T08:40:43;127.13;;;52.95;;
20982;SDS011;10650;51.528;6.748;2022-12-10T08:44:41;119.30;;;49.17;;
20982;SDS011;10650;51.528;6.748;2022-12-10T08:46:53;98.57;;;44.97;;
20982;SDS011;10650;51.528;6.748;2022-12-10T09:08:20;121.25;;;49.30;;
20982;SDS011;10650;51.528;6.748;2022-12-10T09:11:06;89.07;;;44.30;;
20982;SDS011;10650;51.528;6.748;2022-12-10T09:14:10;99.53;;;45.67;;
20982;SDS011;10650;51.528;6.748;2022-12-10T09:17:01;99.10;;;44.90;;
20982;SDS011;10650;51.528;6.748;2022-12-10T09:19:39;106.97;;;46.65;;
20982;SDS011;10650;51.528;6.748;2022-12-10T09:22:24;104.90;;;44.83;;
20982;SDS011;10650;51.528;6.748;2022-12-10T09:24:54;113.93;;;48.50;;
20982;SDS011;10650;51.528;6.748;2022-12-10T09:27:54;107.32;;;47.55;;
20982;SDS011;10650;51.528;6.748;2022-12-10T09:31:03;95.97;;;47.58;;
20982;SDS011;10650;51.528;6.748;2022-12-10T09:33:47;96.80;;;46.58;;
20982;SDS011;10650;51.528;6.748;2022-12-10T09:36:48;117.80;;;54.35;;
20982;SDS011;10650;51.528;6.748;2022-12-10T09:43:37;125.90;;;54.08;;
20982;SDS011;10650;51.528;6.748;2022-12-10T09:48:34;87.97;;;43.42;;
20982;SDS011;10650;51.528;6.748;2022-12-10T09:49:33;103.88;;;46.72;;
20982;SDS011;10650;51.528;6.748;2022-12-10T09:52:44;92.05;;;43.63;;
20982;SDS011;10650;51.528;6.748;2022-12-10T09:55:26;111.15;;;49.50;;
20982;SDS011;10650;51.528;6.748;2022-12-10T10:01:45;86.07;;;42.60;;
20982;SDS011;10650;51.528;6.748;2022-12-10T10:04:41;101.55;;;45.30;;
20982;SDS011;10650;51.528;6.748;2022-12-10T10:07:16;87.65;;;43.45;;
20982;SDS011;10650;51.528;6.748;2022-12-10T10:09:51;84.45;;;41.72;;
20982;SDS011;10650;51.528;6.748;2022-12-10T10:12:37;92.80;;;45.85;;
20982;SDS011;10650;51.528;6.748;2022-12-10T10:15:13;81.68;;;40.53;;
20982;SDS011;10650;51.528;6.748;2022-12-10T10:17:49;92.40;;;45.15;;
20982;SDS011;10650;51.528;6.748;2022-12-10T10:20:42;87.65;;;43.95;;
20982;SDS011;10650;51.528;6.748;2022-12-10T10:23:39;90.75;;;43.72;;
20982;SDS011;10650;51.528;6.748;2022-12-10T10:27:12;92.90;;;43.83;;
20982;SDS011;10650;51.528;6.748;2022-12-10T10:30:27;90.75;;;43.42;;
20982;SDS011;10650;51.528;6.748;2022-12-10T10:33:57;94.25;;;43.42;;
20982;SDS011;10650;51.528;6.748;2022-12-10T10:36:52;86.28;;;41.15;;
20982;SDS011;10650;51.528;6.748;2022-12-10T10:39:58;68.13;;;35.90;;
20982;SDS011;10650;51.528;6.748;2022-12-10T10:42:52;68.32;;;37.13;;
20982;SDS011;10650;51.528;6.748;2022-12-10T10:49:19;58.65;;;33.70;;
20982;SDS011;10650;51.528;6.748;2022-12-10T10:52:13;58.60;;;33.50;;
20982;SDS011;10650;51.528;6.748;2022-12-10T10:56:40;62.97;;;35.25;;
20982;SDS011;10650;51.528;6.748;2022-12-10T11:12:53;59.13;;;33.60;;
20982;SDS011;10650;51.528;6.748;2022-12-10T11:19:35;65.85;;;37.92;;
20982;SDS011;10650;51.528;6.748;2022-12-10T11:26:00;55.33;;;33.28;;
20982;SDS011;10650;51.528;6.748;2022-12-10T11:56:11;60.30;;;33.47;;
20982;SDS011;10650;51.528;6.748;2022-12-10T11:59:34;62.63;;;34.00;;
20982;SDS011;10650;51.528;6.748;2022-12-10T12:31:07;76.80;;;39.58;;
20982;SDS011;10650;51.528;6.748;2022-12-10T12:34:05;79.07;;;41.20;;
20982;SDS011;10650;51.528;6.748;2022-12-10T12:36:52;86.28;;;44.80;;
20982;SDS011;10650;51.528;6.748;2022-12-10T12:40:28;80.45;;;41.10;;
20982;SDS011;10650;51.528;6.748;2022-12-10T12:44:15;77.95;;;40.63;;
20982;SDS011;10650;51.528;6.748;2022-12-10T12:47:16;82.53;;;40.90;;
20982;SDS011;10650;51.528;6.748;2022-12-10T12:54:09;78.75;;;39.72;;
20982;SDS011;10650;51.528;6.748;2022-12-10T13:38:22;60.33;;;32.00;;
20982;SDS011;10650;51.528;6.748;2022-12-10T13:47:46;65.00;;;35.40;;
20982;SDS011;10650;51.528;6.748;2022-12-10T13:58:13;85.57;;;45.25;;
20982;SDS011;10650;51.528;6.748;2022-12-10T14:01:02;80.95;;;44.38;;
20982;SDS011;10650;51.528;6.748;2022-12-10T14:07:19;73.25;;;37.10;;
20982;SDS011;10650;51.528;6.748;2022-12-10T14:10:13;78.85;;;39.00;;
20982;SDS011;10650;51.528;6.748;2022-12-10T14:13:05;75.85;;;39.28;;
20982;SDS011;10650;51.528;6.748;2022-12-10T14:15:41;73.53;;;41.35;;
20982;SDS011;10650;51.528;6.748;2022-12-10T14:18:59;89.07;;;51.08;;
20982;SDS011;10650;51.528;6.748;2022-12-10T14:21:42;80.32;;;44.30;;
20982;SDS011;10650;51.528;6.748;2022-12-10T14:24:39;78.35;;;41.17;;
20982;SDS011;10650;51.528;6.748;2022-12-10T14:27:18;67.60;;;37.53;;
20982;SDS011;10650;51.528;6.748;2022-12-10T14:29:50;73.57;;;39.00;;
20982;SDS011;10650;51.528;6.748;2022-12-10T14:32:29;67.38;;;35.97;;
20982;SDS011;10650;51.528;6.748;2022-12-10T14:35:06;66.30;;;34.40;;
20982;SDS011;10650;51.528;6.748;2022-12-10T14:37:43;73.28;;;39.35;;
20982;SDS011;10650;51.528;6.748;2022-12-10T14:42:47;78.95;;;46.05;;
20982;SDS011;10650;51.528;6.748;2022-12-10T14:45:15;71.78;;;36.03;;
20982;SDS011;10650;51.528;6.748;2022-12-10T14:47:49;71.75;;;36.60;;
20982;SDS011;10650;51.528;6.748;2022-12-10T14:50:21;75.25;;;36.28;;
20982;SDS011;10650;51.528;6.748;2022-12-10T14:52:51;87.78;;;44.15;;
20982;SDS011;10650;51.528;6.748;2022-12-10T14:55:21;77.68;;;37.60;;
20982;SDS011;10650;51.528;6.748;2022-12-10T14:57:54;71.55;;;35.90;;
20982;SDS011;10650;51.528;6.748;2022-12-10T15:00:29;81.40;;;37.10;;
20982;SDS011;10650;51.528;6.748;2022-12-10T15:03:00;75.05;;;36.83;;
20982;SDS011;10650;51.528;6.748;2022-12-10T15:05:36;67.93;;;33.80;;
20982;SDS011;10650;51.528;6.748;2022-12-10T15:08:06;86.80;;;41.47;;
20982;SDS011;10650;51.528;6.748;2022-12-10T15:10:36;87.15;;;41.58;;
20982;SDS011;10650;51.528;6.748;2022-12-10T15:13:07;83.47;;;39.53;;
20982;SDS011;10650;51.528;6.748;2022-12-10T15:15:47;84.07;;;45.80;;
20982;SDS011;10650;51.528;6.748;2022-12-10T15:18:20;97.57;;;49.55;;
20982;SDS011;10650;51.528;6.748;2022-12-10T15:21:02;103.85;;;54.80;;
20982;SDS011;10650;51.528;6.748;2022-12-10T15:23:35;90.72;;;44.67;;
20982;SDS011;10650;51.528;6.748;2022-12-10T15:26:15;78.30;;;39.03;;
20982;SDS011;10650;51.528;6.748;2022-12-10T15:28:46;81.55;;;39.50;;
20982;SDS011;10650;51.528;6.748;2022-12-10T15:31:18;75.13;;;35.78;;
20982;SDS011;10650;51.528;6.748;2022-12-10T15:33:51;77.72;;;38.13;;
20982;SDS011;10650;51.528;6.748;2022-12-10T15:36:25;83.82;;;41.88;;
20982;SDS011;10650;51.528;6.748;2022-12-10T15:39:02;76.90;;;37.85;;
20982;SDS011;10650;51.528;6.748;2022-12-10T15:41:43;77.70;;;37.42;;
20982;SDS011;10650;51.528;6.748;2022-12-10T15:44:23;73.47;;;36.83;;
20982;SDS011;10650;51.528;6.748;2022-12-10T15:47:17;78.90;;;39.55;;
20982;SDS011;10650;51.528;6.748;2022-12-10T15:49:48;88.22;;;48.00;;
20982;SDS011;10650;51.528;6.748;2022-12-10T15:52:20;76.35;;;37.70;;
20982;SDS011;10650;51.528;6.748;2022-12-10T15:54:51;70.97;;;35.50;;
20982;SDS011;10650;51.528;6.748;2022-12-10T15:57:21;73.70;;;36.15;;
20982;SDS011;10650;51.528;6.748;2022-12-10T15:59:53;76.10;;;37.17;;
20982;SDS011;10650;51.528;6.748;2022-12-10T16:02:26;78.00;;;39.08;;
20982;SDS011;10650;51.528;6.748;2022-12-10T16:05:04;74.80;;;36.88;;
20982;SDS011;10650;51.528;6.748;2022-12-10T16:07:41;82.20;;;39.83;;
20982;SDS011;10650;51.528;6.748;2022-12-10T16:10:10;84.13;;;41.92;;
20982;SDS011;10650;51.528;6.748;2022-12-10T16:12:41;89.70;;;46.85;;
20982;SDS011;10650;51.528;6.748;2022-12-10T16:15:11;79.97;;;39.10;;
20982;SDS011;10650;51.528;6.748;2022-12-10T16:17:44;79.63;;;40.35;;
20982;SDS011;10650;51.528;6.748;2022-12-10T16:20:16;78.60;;;40.08;;
20982;SDS011;10650;51.528;6.748;2022-12-10T16:22:48;82.78;;;41.47;;
20982;SDS011;10650;51.528;6.748;2022-12-10T16:25:17;75.93;;;38.10;;
20982;SDS011;10650;51.528;6.748;2022-12-10T16:27:46;79.43;;;39.13;;
20982;SDS011;10650;51.528;6.748;2022-12-10T16:30:16;73.43;;;38.30;;
20982;SDS011;10650;51.528;6.748;2022-12-10T16:32:52;76.07;;;38.58;;
20982;SDS011;10650;51.528;6.748;2022-12-10T16:35:24;80.55;;;39.75;;
20982;SDS011;10650;51.528;6.748;2022-12-10T16:37:52;78.10;;;38.47;;
20982;SDS011;10650;51.528;6.748;2022-12-10T16:40:22;79.57;;;40.03;;
20982;SDS011;10650;51.528;6.748;2022-12-10T16:42:52;78.70;;;38.22;;
20982;SDS011;10650;51.528;6.748;2022-12-10T16:45:21;86.10;;;41.42;;
20982;SDS011;10650;51.528;6.748;2022-12-10T16:47:53;91.03;;;42.20;;
20982;SDS011;10650;51.528;6.748;2022-12-10T16:50:22;85.25;;;43.03;;
20982;SDS011;10650;51.528;6.748;2022-12-10T16:52:52;86.15;;;41.63;;
20982;SDS011;10650;51.528;6.748;2022-12-10T16:55:23;89.65;;;42.22;;
20982;SDS011;10650;51.528;6.748;2022-12-10T16:57:53;88.43;;;42.17;;
20982;SDS011;10650;51.528;6.748;2022-12-10T17:00:22;88.30;;;42.90;;
20982;SDS011;10650;51.528;6.748;2022-12-10T17:02:54;78.55;;;39.85;;
20982;SDS011;10650;51.528;6.748;2022-12-10T17:05:36;136.73;;;61.83;;
20982;SDS011;10650;51.528;6.748;2022-12-10T17:08:08;113.88;;;54.20;;
20982;SDS011;10650;51.528;6.748;2022-12-10T17:10:37;94.15;;;45.45;;
20982;SDS011;10650;51.528;6.748;2022-12-10T17:13:23;84.65;;;40.58;;
20982;SDS011;10650;51.528;6.748;2022-12-10T17:15:54;87.45;;;41.00;;
20982;SDS011;10650;51.528;6.748;2022-12-10T17:18:24;83.75;;;39.60;;
20982;SDS011;10650;51.528;6.748;2022-12-10T17:20:53;81.18;;;38.85;;
20982;SDS011;10650;51.528;6.748;2022-12-10T17:23:22;77.45;;;37.33;;
20982;SDS011;10650;51.528;6.748;2022-12-10T17:25:52;72.75;;;34.03;;
20982;SDS011;10650;51.528;6.748;2022-12-10T17:28:21;73.15;;;37.60;;
20982;SDS011;10650;51.528;6.748;2022-12-10T17:30:50;74.32;;;36.75;;
20982;SDS011;10650;51.528;6.748;2022-12-10T17:33:19;74.03;;;34.65;;
20982;SDS011;10650;51.528;6.748;2022-12-10T17:35:50;76.45;;;36.50;;
20982;SDS011;10650;51.528;6.748;2022-12-10T17:38:24;74.00;;;36.42;;
20982;SDS011;10650;51.528;6.748;2022-12-10T17:40:58;79.35;;;37.90;;
20982;SDS011;10650;51.528;6.748;2022-12-10T17:43:31;80.57;;;38.85;;
20982;SDS011;10650;51.528;6.748;2022-12-10T17:46:01;78.05;;;36.97;;
20982;SDS011;10650;51.528;6.748;2022-12-10T17:48:30;83.65;;;38.47;;
20982;SDS011;10650;51.528;6.748;2022-12-10T17:51:01;80.53;;;37.80;;
20982;SDS011;10650;51.528;6.748;2022-12-10T17:53:30;74.32;;;36.78;;
20982;SDS011;10650;51.528;6.748;2022-12-10T17:56:00;77.15;;;37.78;;
20982;SDS011;10650;51.528;6.748;2022-12-10T17:58:29;81.53;;;39.65;;
20982;SDS011;10650;51.528;6.748;2022-12-10T18:00:57;77.60;;;38.10;;
20982;SDS011;10650;51.528;6.748;2022-12-10T18:03:57;84.72;;;38.47;;
20982;SDS011;10650;51.528;6.748;2022-12-10T18:24:24;74.70;;;37.28;;
20982;SDS011;10650;51.528;6.748;2022-12-10T18:30:43;79.70;;;37.63;;
20982;SDS011;10650;51.528;6.748;2022-12-10T18:33:49;79.78;;;38.05;;
20982;SDS011;10650;51.528;6.748;2022-12-10T18:36:37;83.47;;;41.92;;
20982;SDS011;10650;51.528;6.748;2022-12-10T19:15:50;85.97;;;38.78;;
20982;SDS011;10650;51.528;6.748;2022-12-10T20:00:28;85.82;;;35.60;;
20982;SDS011;10650;51.528;6.748;2022-12-10T20:02:59;89.00;;;35.72;;
20982;SDS011;10650;51.528;6.748;2022-12-10T20:05:28;94.72;;;38.20;;
20982;SDS011;10650;51.528;6.748;2022-12-10T20:09:16;100.93;;;38.90;;
20982;SDS011;10650;51.528;6.748;2022-12-10T20:43:07;109.63;;;38.40;;
20982;SDS011;10650;51.528;6.748;2022-12-10T20:49:30;118.60;;;44.03;;
20982;SDS011;10650;51.528;6.748;2022-12-10T20:52:52;124.40;;;43.78;;
20982;SDS011;10650;51.528;6.748;2022-12-10T20:55:46;97.55;;;39.13;;